Time;durP1;ratioP1;P1;durP2;ratioP2;P2;SDS_P1;SDS_P2;PMS_P1;PMS_P2;Temp;Humidity;BMP_temperature;BMP_pressure;BME280_temperature;BME280_humidity;BME280_pressure;Samples;Min_cycle;Max_cycle;Signal;HPM_P1;HPM_P2
2021/01/15 00:01:59;;;;;;;1999.90;999.90;;;;;;;-0.77;83.14;98098.69;4964554;28;20077;-65
2021/01/15 00:04:26;;;;;;;1999.90;999.90;;;;;;;-0.57;82.92;98097.22;4962496;28;20065;-65
2021/01/15 00:07:02;;;;;;;1999.90;999.90;;;;;;;-0.25;81.14;98101.81;4964647;28;20511;-65
2021/01/15 00:09:28;;;;;;;1999.90;999.90;;;;;;;-0.11;80.48;98105.69;4962283;28;20051;-65
2021/01/15 00:11:55;;;;;;;1999.90;999.90;;;;;;;-0.03;80.17;98113.38;4961011;28;20051;-65
2021/01/15 00:14:21;;;;;;;1999.90;999.90;;;;;;;-0.28;80.71;98115.91;4962460;28;20039;-64
2021/01/15 00:16:51;;;;;;;1999.90;999.90;;;;;;;-0.32;81.49;98117.53;4961095;28;20077;-65
2021/01/15 00:19:17;;;;;;;1999.90;999.90;;;;;;;-0.63;82.24;98119.97;4962804;28;20047;-64
2021/01/15 00:21:49;;;;;;;1999.90;999.90;;;;;;;-0.56;82.14;98126.03;4960745;28;20063;-65
2021/01/15 00:24:17;;;;;;;1999.90;999.90;;;;;;;-0.45;81.84;98132.34;4960527;28;20050;-65
2021/01/15 00:26:44;;;;;;;1999.90;999.90;;;;;;;-0.57;82.98;98137.97;4946530;28;20643;-65
2021/01/15 00:29:15;;;;;;;1999.90;999.90;;;;;;;-0.78;82.79;98142.38;4958866;28;20069;-65
2021/01/15 00:31:43;;;;;;;1999.90;999.90;;;;;;;-0.53;82.63;98149.94;4966801;28;20476;-65
2021/01/15 00:34:14;;;;;;;1999.90;999.90;;;;;;;-0.56;82.27;98151.28;4961668;28;20166;-65
2021/01/15 00:36:43;;;;;;;1999.90;999.90;;;;;;;-0.67;82.70;98146.84;4961814;28;20051;-65
2021/01/15 00:39:10;;;;;;;1999.90;999.90;;;;;;;-0.45;82.39;98152.19;4963250;28;20392;-64
2021/01/15 00:41:37;;;;;;;1999.90;999.90;;;;;;;-0.30;81.47;98153.41;4962972;28;20133;-65
2021/01/15 00:44:06;;;;;;;1999.90;999.90;;;;;;;-0.51;81.64;98155.13;4965666;28;21266;-65
2021/01/15 00:46:32;;;;;;;1999.90;999.90;;;;;;;-0.49;82.47;98156.50;4961314;28;20515;-65
2021/01/15 00:49:08;;;;;;;1999.90;999.90;;;;;;;-0.66;82.54;98158.53;4957563;28;20074;-65
2021/01/15 00:51:35;;;;;;;1999.90;999.90;;;;;;;-0.76;84.16;98165.50;4959743;28;20051;-65
2021/01/15 00:54:03;;;;;;;1999.90;999.90;;;;;;;-0.17;82.04;98166.53;4959455;28;20043;-64
2021/01/15 00:56:30;;;;;;;1999.90;999.90;;;;;;;0.00;81.11;98160.97;4961984;28;20045;-65
2021/01/15 00:58:56;;;;;;;1999.90;999.90;;;;;;;-0.36;81.50;98171.56;4961092;28;20095;-65
2021/01/15 01:01:24;;;;;;;1999.90;999.90;;;;;;;-0.34;81.70;98172.13;4966209;28;20050;-65
2021/01/15 01:03:51;;;;;;;1999.90;999.90;;;;;;;-0.15;81.40;98167.09;4958609;28;20051;-65
2021/01/15 01:06:22;;;;;;;1999.90;999.90;;;;;;;-0.13;81.71;98169.59;4965681;28;20074;-65
2021/01/15 01:08:50;;;;;;;1999.90;999.90;;;;;;;-0.54;82.75;98173.59;4966140;28;20047;-65
2021/01/15 01:11:20;;;;;;;1999.90;999.90;;;;;;;-0.24;81.94;98171.38;4967587;28;20051;-65
2021/01/15 01:13:47;;;;;;;1999.90;999.90;;;;;;;-0.29;81.87;98174.88;4966830;28;20105;-65
2021/01/15 01:16:15;;;;;;;1999.90;999.90;;;;;;;-0.21;81.89;98168.13;4966147;28;20047;-65
2021/01/15 01:18:42;;;;;;;1999.90;999.90;;;;;;;-0.57;83.00;98167.84;4968286;28;20558;-65
2021/01/15 01:21:10;;;;;;;1999.90;999.90;;;;;;;-0.36;82.17;98169.66;4973565;28;20380;-65
2021/01/15 01:23:36;;;;;;;1999.90;999.90;;;;;;;0.17;80.79;98171.69;4978609;28;20051;-65
2021/01/15 01:26:03;;;;;;;1999.90;999.90;;;;;;;0.29;79.59;98168.75;4981064;28;20278;-65
2021/01/15 01:28:29;;;;;;;1999.90;999.90;;;;;;;0.16;79.59;98180.91;4983513;28;20047;-65
2021/01/15 01:30:55;;;;;;;1999.90;999.90;;;;;;;-0.13;79.96;98177.72;4981914;28;20050;-65
2021/01/15 01:33:22;;;;;;;1999.90;999.90;;;;;;;-0.08;81.65;98173.13;4980295;28;20047;-65
2021/01/15 01:35:49;;;;;;;1999.90;999.90;;;;;;;0.05;80.65;98173.78;4978800;28;20054;-65
2021/01/15 01:38:17;;;;;;;1999.90;999.90;;;;;;;0.23;80.16;98178.78;4985455;28;20046;-65
2021/01/15 01:40:46;;;;;;;1999.90;999.90;;;;;;;0.15;79.31;98173.84;4975861;28;20483;-65
2021/01/15 01:43:12;;;;;;;1999.90;999.90;;;;;;;0.04;80.49;98172.94;4976316;28;20046;-66
2021/01/15 01:45:39;;;;;;;1999.90;999.90;;;;;;;-0.09;80.98;98178.84;4978527;28;20050;-65
2021/01/15 01:48:06;;;;;;;1999.90;999.90;;;;;;;-0.25;81.18;98177.91;4977496;28;20050;-65
2021/01/15 01:50:33;;;;;;;1999.90;999.90;;;;;;;-0.25;81.77;98186.88;4977226;28;20046;-65
2021/01/15 01:53:01;;;;;;;1999.90;999.90;;;;;;;-0.09;81.31;98184.28;4973820;28;20672;-66
2021/01/15 01:55:28;;;;;;;1999.90;999.90;;;;;;;-0.25;81.61;98186.88;4978182;28;20065;-65
2021/01/15 01:57:54;;;;;;;1999.90;999.90;;;;;;;-0.31;82.19;98187.06;4984239;28;20100;-65
2021/01/15 02:00:20;;;;;;;1999.90;999.90;;;;;;;-0.32;82.84;98188.97;4977254;28;20061;-65
2021/01/15 02:02:46;;;;;;;1999.90;999.90;;;;;;;-0.41;82.56;98187.81;4979546;28;20042;-65
2021/01/15 02:05:13;;;;;;;1999.90;999.90;;;;;;;-0.34;82.54;98199.31;4977234;28;20054;-65
2021/01/15 02:07:41;;;;;;;1999.90;999.90;;;;;;;-0.22;82.23;98182.81;4979210;28;20145;-65
2021/01/15 02:10:25;;;;;;;1999.90;999.90;;;;;;;0.03;81.16;98175.94;4977362;28;20047;-65
2021/01/15 02:12:57;;;;;;;1999.90;999.90;;;;;;;-0.04;81.29;98187.84;4982118;28;20054;-65
2021/01/15 02:15:48;;;;;;;1999.90;999.90;;;;;;;0.29;80.37;98185.91;4975129;28;20051;-65
2021/01/15 02:18:23;;;;;;;1999.90;999.90;;;;;;;0.28;80.33;98183.44;4977558;28;20047;-65
2021/01/15 02:21:04;;;;;;;1999.90;999.90;;;;;;;0.13;80.69;98184.16;4977245;28;20619;-66
2021/01/15 02:23:41;;;;;;;1999.90;999.90;;;;;;;0.05;81.17;98187.38;4977177;28;20050;-65
2021/01/15 02:26:18;;;;;;;1999.90;999.90;;;;;;;-0.30;82.36;98191.44;4979247;28;20046;-65
2021/01/15 02:29:15;;;;;;;1999.90;999.90;;;;;;;-0.72;84.05;98196.47;4977601;28;20047;-65
2021/01/15 02:31:44;;;;;;;1999.90;999.90;;;;;;;-0.28;83.88;98189.28;4978804;28;20113;-65
2021/01/15 02:34:53;;;;;;;1999.90;999.90;;;;;;;-0.31;82.95;98187.91;4980676;28;20100;-66
2021/01/15 02:37:50;;;;;;;1999.90;999.90;;;;;;;-0.50;84.52;98192.09;4972971;28;20047;-65
2021/01/15 02:40:30;;;;;;;1999.90;999.90;;;;;;;-0.31;83.25;98181.63;4979157;28;20698;-65
2021/01/15 02:42:57;;;;;;;1999.90;999.90;;;;;;;-0.64;84.46;98180.81;4976238;28;20121;-65
2021/01/15 02:45:23;;;;;;;1999.90;999.90;;;;;;;-0.90;85.46;98185.97;4962360;28;20101;-65
2021/01/15 02:47:51;;;;;;;1999.90;999.90;;;;;;;-0.80;85.40;98191.53;4971283;28;20050;-65
2021/01/15 02:50:23;;;;;;;1999.90;999.90;;;;;;;-0.94;86.12;98184.84;4977148;28;20097;-65
2021/01/15 02:52:49;;;;;;;;;;;;;;;-0.74;85.76;98189.69;4970968;28;20079;-66
2021/01/15 02:55:17;;;;;;;1999.90;999.90;;;;;;;-0.69;85.74;98200.59;4977968;28;19933;-65
2021/01/15 02:57:43;;;;;;;1999.90;999.90;;;;;;;-0.75;85.30;98197.00;4984699;28;20058;-66
2021/01/15 03:00:15;;;;;;;1999.90;999.90;;;;;;;-0.21;83.50;98198.03;4976608;28;20101;-65
2021/01/15 03:02:44;;;;;;;1999.90;999.90;;;;;;;-1.02;85.05;98202.41;4972775;28;20152;-65
2021/01/15 03:05:21;;;;;;;1999.90;999.90;;;;;;;-1.11;86.10;98199.31;4969980;28;20046;-65
2021/01/15 03:07:50;;;;;;;1999.90;999.90;;;;;;;-1.09;86.00;98199.06;4977037;28;20050;-65
2021/01/15 03:10:23;;;;;;;1999.90;999.90;;;;;;;-1.60;88.13;98188.38;4974844;28;20046;-65
2021/01/15 03:12:52;;;;;;;1999.90;999.90;;;;;;;-1.15;87.39;98190.03;4974423;28;20739;-66
2021/01/15 03:15:20;;;;;;;1999.90;999.90;;;;;;;-1.14;86.28;98193.59;4978519;28;20057;-65
2021/01/15 03:17:48;;;;;;;1999.90;999.90;;;;;;;-1.11;86.37;98195.78;4973469;28;20057;-65
2021/01/15 03:20:16;;;;;;;1999.90;999.90;;;;;;;-1.26;86.80;98194.53;4975640;28;20069;-65
2021/01/15 03:22:45;;;;;;;1999.90;999.90;;;;;;;-1.23;86.32;98192.38;4978645;28;20186;-65
2021/01/15 03:25:14;;;;;;;1999.90;999.90;;;;;;;-1.09;86.63;98190.91;4964696;28;20116;-65
2021/01/15 03:27:50;;;;;;;1999.90;999.90;;;;;;;-1.27;87.18;98192.88;4976055;28;20135;-66
2021/01/15 03:30:21;;;;;;;1999.90;999.90;;;;;;;-0.75;85.14;98194.28;4976114;28;20446;-65
2021/01/15 03:32:50;;;;;;;1999.90;999.90;;;;;;;-0.58;83.95;98193.34;4975827;28;20462;-66
2021/01/15 03:35:22;;;;;;;1999.90;999.90;;;;;;;-0.58;83.42;98193.34;4974441;28;20427;-65
2021/01/15 03:38:12;;;;;;;1999.90;999.90;;;;;;;-1.05;84.89;98207.53;4976003;28;20050;-65
2021/01/15 03:40:40;;;;;;;1999.90;999.90;;;;;;;-1.13;84.96;98197.91;4977075;28;20050;-65
2021/01/15 03:43:20;;;;;;;1999.90;999.90;;;;;;;-0.82;84.60;98201.81;4974010;28;20443;-65
2021/01/15 03:45:51;;;;;;;1999.90;999.90;;;;;;;-0.74;83.79;98198.63;4975440;28;20229;-65
2021/01/15 03:48:18;;;;;;;1999.90;999.90;;;;;;;-1.07;84.27;98184.16;4973221;28;20057;-65
2021/01/15 03:50:45;;;;;;;1999.90;999.90;;;;;;;-0.93;84.66;98191.91;4975005;28;20116;-66
2021/01/15 03:53:14;;;;;;;1999.90;999.90;;;;;;;-0.85;84.07;98196.88;4972249;28;20054;-66
2021/01/15 03:55:41;;;;;;;1999.90;999.90;;;;;;;-0.82;83.29;98199.13;4979214;28;20059;-65
2021/01/15 03:58:08;;;;;;;1999.90;999.90;;;;;;;-0.64;82.21;98200.66;4973372;28;20229;-66
2021/01/15 04:00:35;;;;;;;1999.90;999.90;;;;;;;-0.64;82.59;98194.38;4973395;28;20054;-66
2021/01/15 04:03:04;;;;;;;1999.90;999.90;;;;;;;-0.71;82.50;98195.41;4972107;28;20039;-66
2021/01/15 04:05:31;;;;;;;1999.90;999.90;;;;;;;-1.04;83.94;98198.28;4974444;28;20046;-66
2021/01/15 04:07:57;;;;;;;1999.90;999.90;;;;;;;-1.48;85.42;98196.41;4977270;28;20100;-65
2021/01/15 04:10:24;;;;;;;1999.90;999.90;;;;;;;-1.12;85.96;98196.84;4974732;28;20047;-66
2021/01/15 04:12:50;;;;;;;1999.90;999.90;;;;;;;-0.96;84.75;98192.44;4976431;28;20046;-66
2021/01/15 04:15:17;;;;;;;1999.90;999.90;;;;;;;-0.98;84.06;98187.25;4972766;28;20527;-65
2021/01/15 04:17:44;;;;;;;1999.90;999.90;;;;;;;-1.40;85.75;98184.28;4976636;28;20051;-66
2021/01/15 04:20:13;;;;;;;1999.90;999.90;;;;;;;-1.12;85.30;98178.66;4970721;28;20054;-66
2021/01/15 04:22:45;;;;;;;1999.90;999.90;;;;;;;-1.32;86.04;98184.69;4977343;28;20511;-65
2021/01/15 04:25:12;;;;;;;1999.90;999.90;;;;;;;-0.92;84.91;98183.53;4970946;28;20506;-66
2021/01/15 04:27:39;;;;;;;1999.90;999.90;;;;;;;-1.08;84.30;98185.22;4977322;28;20054;-66
2021/01/15 04:30:08;;;;;;;1999.90;999.90;;;;;;;-1.37;85.69;98187.34;4973892;28;20125;-66
2021/01/15 04:32:34;;;;;;;1999.90;999.90;;;;;;;-1.05;85.00;98189.34;4967235;28;20051;-65
2021/01/15 04:35:02;;;;;;;1999.90;999.90;;;;;;;-0.83;83.90;98193.91;4976036;28;20038;-65
2021/01/15 04:37:28;;;;;;;1999.90;999.90;;;;;;;-0.69;83.14;98186.19;4976268;28;20105;-65
2021/01/15 04:39:54;;;;;;;1999.90;999.90;;;;;;;-0.58;83.08;98179.78;4975904;28;20543;-65
2021/01/15 04:42:23;;;;;;;1999.90;999.90;;;;;;;-0.66;82.52;98185.69;4975967;28;20102;-65
2021/01/15 04:44:50;;;;;;;1999.90;999.90;;;;;;;-0.63;82.88;98177.00;4978064;28;20046;-65
2021/01/15 04:47:16;;;;;;;1999.90;999.90;;;;;;;-0.75;82.50;98179.88;4972188;28;20054;-65
2021/01/15 04:49:45;;;;;;;1999.90;999.90;;;;;;;-1.19;84.41;98171.78;4974579;28;20054;-65
2021/01/15 04:52:13;;;;;;;1999.90;999.90;;;;;;;-1.42;84.82;98185.34;4971956;28;20578;-65
2021/01/15 04:54:47;;;;;;;1999.90;999.90;;;;;;;-1.37;85.35;98183.78;4975927;28;20101;-65
2021/01/15 04:57:13;;;;;;;1999.90;999.90;;;;;;;-1.23;84.77;98190.50;4981301;28;20074;-65
2021/01/15 04:59:44;;;;;;;1999.90;999.90;;;;;;;-1.30;85.01;98182.53;4972196;28;20050;-65
2021/01/15 05:02:11;;;;;;;1999.90;999.90;;;;;;;-1.50;85.06;98185.81;4979671;28;20042;-65
2021/01/15 05:04:38;;;;;;;1999.90;999.90;;;;;;;-1.31;85.76;98185.50;4977812;28;20047;-65
2021/01/15 05:07:06;;;;;;;1999.90;999.90;;;;;;;-1.18;84.55;98187.00;4976360;28;20054;-65
2021/01/15 05:09:47;;;;;;;1999.90;999.90;;;;;;;-1.49;85.39;98192.88;4972081;28;20046;-65
2021/01/15 05:12:17;;;;;;;1999.90;999.90;;;;;;;-1.47;85.06;98204.28;4967544;28;20077;-65
2021/01/15 05:14:49;;;;;;;1999.90;999.90;;;;;;;-1.70;86.15;98201.78;4971877;28;20054;-65
2021/01/15 05:17:18;;;;;;;1999.90;999.90;;;;;;;-1.87;86.91;98207.25;4972736;28;20047;-65
2021/01/15 05:19:44;;;;;;;1999.90;999.90;;;;;;;-1.35;85.76;98208.78;4957287;28;20113;-65
2021/01/15 05:22:11;;;;;;;1999.90;999.90;;;;;;;-1.92;86.57;98207.16;4963376;28;20058;-65
2021/01/15 05:24:38;;;;;;;1999.90;999.90;;;;;;;-1.83;87.63;98203.78;4964219;28;20050;-65
2021/01/15 05:30:14;;;;;;;;;;;;;;;-1.29;84.82;98215.94;4971806;28;20277;-65
2021/01/15 05:32:41;;;;;;;1999.90;999.90;;;;;;;-1.64;85.94;98220.63;4971526;28;19926;-65
2021/01/15 05:35:08;;;;;;;1999.90;999.90;;;;;;;-1.74;86.07;98204.19;4973119;28;20046;-65
2021/01/15 05:37:34;;;;;;;1999.90;999.90;;;;;;;-1.43;86.23;98204.59;4971467;28;20529;-65
2021/01/15 05:40:01;;;;;;;1999.90;999.90;;;;;;;-1.83;86.05;98201.09;4966129;28;20050;-65
2021/01/15 05:42:27;;;;;;;1999.90;999.90;;;;;;;-1.37;84.95;98191.94;4961406;28;20460;-65
2021/01/15 05:45:11;;;;;;;1999.90;999.90;;;;;;;-0.82;82.54;98187.41;4953888;28;20496;-65
2021/01/15 05:47:42;;;;;;;1999.90;999.90;;;;;;;-1.27;83.27;98201.00;4955807;28;20560;-65
2021/01/15 05:50:10;;;;;;;1999.90;999.90;;;;;;;-1.57;84.88;98204.16;4957318;28;20401;-65
2021/01/15 05:52:37;;;;;;;1999.90;999.90;;;;;;;-1.39;84.08;98204.94;4957368;28;20058;-65
2021/01/15 05:55:13;;;;;;;1999.90;999.90;;;;;;;-1.23;84.28;98214.91;4955672;28;20153;-66
2021/01/15 05:57:40;;;;;;;1999.90;999.90;;;;;;;-1.29;83.45;98210.50;4961792;28;20055;-65
2021/01/15 06:00:07;;;;;;;1999.90;999.90;;;;;;;-1.16;83.10;98209.28;4953073;28;20109;-65
2021/01/15 06:02:33;;;;;;;1999.90;999.90;;;;;;;-1.19;83.38;98220.63;4959672;28;20077;-65
2021/01/15 06:05:03;;;;;;;1999.90;999.90;;;;;;;-1.15;82.61;98206.31;4960311;28;20054;-65
2021/01/15 06:07:29;;;;;;;1999.90;999.90;;;;;;;-1.49;83.90;98222.72;4969243;28;20146;-65
2021/01/15 06:10:00;;;;;;;1999.90;999.90;;;;;;;-1.22;83.42;98223.88;4950236;28;20050;-65
2021/01/15 06:12:40;;;;;;;;;;;;;;;-0.79;81.50;98220.31;4964229;28;20467;-64
2021/01/15 06:15:07;;;;;;;1999.90;999.90;;;;;;;-0.68;81.02;98225.88;4958894;28;20074;-65
2021/01/15 06:17:38;;;;;;;1999.90;999.90;;;;;;;-1.42;83.11;98242.31;4965186;28;20050;-65
2021/01/15 06:20:05;;;;;;;1999.90;999.90;;;;;;;-1.47;84.57;98242.25;4959841;28;20448;-64
2021/01/15 06:22:46;;;;;;;1999.90;999.90;;;;;;;-1.28;83.84;98234.66;4961285;28;20051;-64
2021/01/15 06:25:22;;;;;;;1999.90;999.90;;;;;;;-1.39;84.69;98248.34;4954363;28;20512;-64
2021/01/15 06:27:55;;;;;;;1999.90;999.90;;;;;;;-1.68;84.54;98248.44;4958159;28;20392;-64
2021/01/15 06:30:27;;;;;;;1999.90;999.90;;;;;;;-2.09;86.93;98255.97;4956122;28;20054;-64
2021/01/15 06:32:55;;;;;;;1999.90;999.90;;;;;;;-1.71;86.67;98248.94;4951372;28;20050;-64
2021/01/15 06:35:29;;;;;;;1999.90;999.90;;;;;;;-1.37;84.50;98262.47;4956193;28;20051;-65
2021/01/15 06:38:12;;;;;;;1999.90;999.90;;;;;;;-1.45;83.94;98271.84;4954702;28;20055;-64
2021/01/15 06:40:44;;;;;;;1999.90;999.90;;;;;;;-1.17;83.18;98267.38;4955738;28;20058;-65
2021/01/15 06:43:11;;;;;;;;;;;;;;;-1.33;82.91;98269.03;4958652;28;20055;-65
2021/01/15 06:45:42;;;;;;;1999.90;999.90;;;;;;;-1.22;82.78;98276.25;4954267;28;19996;-65
2021/01/15 06:48:15;;;;;;;;;;;;;;;-1.03;82.82;98281.38;4954268;28;20511;-65
2021/01/15 06:50:47;;;;;;;1999.90;999.90;;;;;;;-0.93;81.86;98281.50;4954491;28;20002;-65
2021/01/15 06:53:20;;;;;;;1999.90;999.90;;;;;;;-1.09;82.16;98289.47;4954249;28;20110;-65
2021/01/15 06:55:52;;;;;;;1999.90;999.90;;;;;;;-0.78;81.39;98291.72;4959544;28;20508;-65
2021/01/15 06:58:22;;;;;;;1999.90;999.90;;;;;;;-0.65;80.93;98290.53;4952465;28;20058;-65
2021/01/15 07:01:22;;;;;;;1999.90;999.90;;;;;;;-0.80;80.57;98293.91;4961435;28;20070;-65
2021/01/15 07:04:01;;;;;;;1999.90;999.90;;;;;;;-1.48;81.98;98294.88;4951034;28;20443;-65
2021/01/15 07:06:32;;;;;;;1999.90;999.90;;;;;;;-1.17;81.95;98292.59;4963231;28;20050;-65
2021/01/15 07:09:07;;;;;;;1999.90;999.90;;;;;;;-1.73;82.41;98300.72;4962864;28;20491;-65
2021/01/15 07:11:34;;;;;;;1999.90;999.90;;;;;;;-2.07;83.89;98303.44;4957237;28;20075;-65
2021/01/15 07:14:02;;;;;;;1999.90;999.90;;;;;;;-2.14;83.46;98311.69;4962941;28;20039;-64
2021/01/15 07:16:39;;;;;;;1999.90;999.90;;;;;;;-1.86;83.19;98314.59;4960279;28;20059;-65
2021/01/15 07:19:06;;;;;;;1999.90;999.90;;;;;;;-2.19;84.18;98322.47;4956708;28;20436;-65
2021/01/15 07:21:43;;;;;;;1999.90;999.90;;;;;;;-1.86;83.00;98320.84;4957200;28;20059;-65
2021/01/15 07:24:09;;;;;;;1999.90;999.90;;;;;;;-1.82;82.93;98329.31;4954962;28;20050;-65
2021/01/15 07:26:40;;;;;;;1999.90;999.90;;;;;;;-1.76;82.52;98336.47;4960285;28;20067;-65
2021/01/15 07:29:09;;;;;;;1999.90;999.90;;;;;;;-2.19;82.63;98340.59;4962676;28;20046;-64
2021/01/15 07:31:39;;;;;;;1999.90;999.90;;;;;;;-2.96;85.25;98344.47;4948789;28;20055;-64
2021/01/15 07:34:14;;;;;;;1999.90;999.90;;;;;;;-2.92;85.39;98351.88;4962472;28;20411;-65
2021/01/15 07:36:41;;;;;;;1999.90;999.90;;;;;;;-2.68;84.91;98355.38;4950746;28;20464;-64
2021/01/15 07:39:12;;;;;;;1999.90;999.90;;;;;;;-2.41;83.58;98362.94;4960318;28;20051;-64
2021/01/15 07:41:43;;;;;;;1999.90;999.90;;;;;;;-3.14;81.96;98362.50;4953714;28;20050;-64
2021/01/15 07:44:24;;;;;;;1999.90;999.90;;;;;;;-3.15;83.00;98365.47;4954952;28;20102;-64
2021/01/15 07:46:53;;;;;;;1999.90;999.90;;;;;;;-2.83;79.91;98364.00;4956887;28;20062;-64
2021/01/15 07:49:20;;;;;;;1999.90;999.90;;;;;;;-2.88;77.02;98372.00;4956511;28;20075;-64
2021/01/15 07:52:09;;;;;;;1999.90;999.90;;;;;;;-2.87;77.94;98365.53;4955827;28;20055;-64
2021/01/15 07:54:50;;;;;;;1999.90;999.90;;;;;;;-3.16;78.86;98361.91;4951567;28;20154;-65
2021/01/15 07:57:17;;;;;;;;;;;;;;;-2.46;77.25;98375.56;4958952;28;20054;-65
2021/01/15 07:59:44;;;;;;;1999.90;999.90;;;;;;;-3.32;76.36;98377.00;4961843;28;20316;-64
2021/01/15 08:02:11;;;;;;;1999.90;999.90;;;;;;;-3.00;74.24;98373.91;4958975;28;20408;-65
2021/01/15 08:04:37;;;;;;;1999.90;999.90;;;;;;;-2.71;74.31;98379.38;4954848;28;20051;-65
2021/01/15 08:07:30;;;;;;;1999.90;999.90;;;;;;;-2.67;73.83;98380.56;4962892;28;20534;-65
2021/01/15 08:09:56;;;;;;;1999.90;999.90;;;;;;;-2.03;72.52;98380.44;4960697;28;20077;-65
2021/01/15 08:12:23;;;;;;;1999.90;999.90;;;;;;;-1.54;69.99;98379.94;4963957;28;20285;-65
2021/01/15 08:14:49;;;;;;;1999.90;999.90;;;;;;;-1.55;70.29;98385.63;4959141;28;20047;-65
2021/01/15 08:17:25;;;;;;;1999.90;999.90;;;;;;;-1.74;69.61;98376.88;4959388;28;20129;-65
2021/01/15 08:19:52;;;;;;;1999.90;999.90;;;;;;;-1.96;70.60;98389.25;4954975;28;20364;-65
2021/01/15 08:22:19;;;;;;;1999.90;999.90;;;;;;;-1.38;70.03;98374.78;4957928;28;20050;-65
2021/01/15 08:24:47;;;;;;;1999.90;999.90;;;;;;;-2.13;69.83;98391.94;4957554;28;20051;-65
2021/01/15 08:27:21;;;;;;;1999.90;999.90;;;;;;;-1.31;68.41;98391.69;4956199;28;20114;-65
2021/01/15 08:29:51;;;;;;;1999.90;999.90;;;;;;;-1.05;68.11;98382.06;4953428;28;20082;-65
2021/01/15 08:32:17;;;;;;;1999.90;999.90;;;;;;;-0.76;66.84;98376.47;4961539;28;20047;-65
2021/01/15 08:34:44;;;;;;;1999.90;999.90;;;;;;;-0.74;65.14;98379.78;4958924;28;20121;-65
2021/01/15 08:37:15;;;;;;;1999.90;999.90;;;;;;;-0.43;65.78;98381.00;4960998;28;20058;-65
2021/01/15 08:39:53;;;;;;;1999.90;999.90;;;;;;;-0.65;65.13;98383.69;4951951;28;20051;-65
2021/01/15 08:42:20;;;;;;;1999.90;999.90;;;;;;;-0.12;64.78;98388.66;4960001;28;20512;-65
2021/01/15 08:44:47;;;;;;;1999.90;999.90;;;;;;;0.14;62.54;98378.88;4961728;28;20061;-65
2021/01/15 08:47:21;;;;;;;1999.90;999.90;;;;;;;-0.42;61.36;98389.94;4956564;28;20062;-66
2021/01/15 08:49:55;;;;;;;1999.90;999.90;;;;;;;-0.58;61.01;98394.38;4957113;28;20054;-65
2021/01/15 08:52:24;;;;;;;1999.90;999.90;;;;;;;-0.06;61.15;98393.06;4954492;28;20489;-65
2021/01/15 08:54:51;;;;;;;1999.90;999.90;;;;;;;-1.63;60.97;98401.22;4963223;28;20062;-65
2021/01/15 08:57:25;;;;;;;1999.90;999.90;;;;;;;-0.97;59.88;98399.81;4957936;28;20061;-65
2021/01/15 08:59:52;;;;;;;1999.90;999.90;;;;;;;-1.04;58.00;98410.84;4955227;28;20121;-65
2021/01/15 09:02:20;;;;;;;1999.90;999.90;;;;;;;-1.90;59.46;98414.56;4962912;28;20496;-65
2021/01/15 09:04:48;;;;;;;1999.90;999.90;;;;;;;-1.49;59.84;98422.59;4961617;28;20070;-65
2021/01/15 09:07:15;;;;;;;1999.90;999.90;;;;;;;-1.88;59.99;98426.00;4942664;29;20063;-65
2021/01/15 09:09:42;;;;;;;1999.90;999.90;;;;;;;-2.25;61.32;98426.34;4955726;28;20050;-65
2021/01/15 09:12:09;;;;;;;1999.90;999.90;;;;;;;-1.58;59.21;98438.44;4956915;28;20109;-65
2021/01/15 09:14:36;;;;;;;1999.90;999.90;;;;;;;-0.88;59.37;98425.47;4958295;28;20054;-65
2021/01/15 09:17:07;;;;;;;1999.90;999.90;;;;;;;-0.24;57.89;98430.41;4952309;28;20070;-65
2021/01/15 09:19:35;;;;;;;1999.90;999.90;;;;;;;0.10;57.56;98426.69;4951243;28;20129;-65
2021/01/15 09:22:07;;;;;;;1999.90;999.90;;;;;;;0.21;55.69;98433.91;4959490;28;20070;-65
2021/01/15 09:24:34;;;;;;;1999.90;999.90;;;;;;;-0.17;56.92;98443.78;4959344;28;20046;-65
2021/01/15 09:27:03;;;;;;;1999.90;999.90;;;;;;;-0.34;55.16;98432.16;4956106;28;20069;-65
2021/01/15 09:29:29;;;;;;;1999.90;999.90;;;;;;;-0.12;55.48;98441.16;4963596;28;20384;-65
2021/01/15 09:31:56;;;;;;;1999.90;999.90;;;;;;;-0.26;53.87;98445.31;4948918;28;20055;-65
2021/01/15 09:34:24;;;;;;;1999.90;999.90;;;;;;;-0.58;55.03;98443.25;4960497;28;20051;-65
2021/01/15 09:36:51;;;;;;;1999.90;999.90;;;;;;;-0.39;53.75;98447.34;4954567;28;20055;-65
2021/01/15 09:39:23;;;;;;;1999.90;999.90;;;;;;;0.05;53.24;98446.50;4962698;28;20471;-65
2021/01/15 09:41:52;;;;;;;1999.90;999.90;;;;;;;-0.15;52.45;98452.50;4964811;28;20058;-65
2021/01/15 09:44:20;;;;;;;1999.90;999.90;;;;;;;-0.57;52.20;98453.06;4954379;28;20558;-65
2021/01/15 09:46:48;;;;;;;1999.90;999.90;;;;;;;-0.27;53.12;98443.66;4958576;28;20051;-65
2021/01/15 09:49:15;;;;;;;1999.90;999.90;;;;;;;0.05;51.18;98448.41;4959709;28;20050;-65
2021/01/15 09:51:41;;;;;;;1999.90;999.90;;;;;;;-1.27;51.61;98452.53;4959038;28;20054;-64
2021/01/15 09:54:08;;;;;;;1999.90;999.90;;;;;;;-0.69;53.37;98447.72;4964165;28;20042;-65
2021/01/15 09:56:45;;;;;;;1999.90;999.90;;;;;;;-0.59;51.20;98447.06;4965969;28;20131;-65
2021/01/15 09:59:14;;;;;;;1999.90;999.90;;;;;;;0.06;52.38;98441.88;4961190;28;20511;-65
2021/01/15 10:01:40;;;;;;;1999.90;999.90;;;;;;;0.26;50.53;98446.75;4959622;28;20050;-65
2021/01/15 10:04:06;;;;;;;1999.90;999.90;;;;;;;-1.12;52.46;98455.50;4956768;28;20726;-65
2021/01/15 10:06:46;;;;;;;1999.90;999.90;;;;;;;-0.17;53.62;98451.94;4956875;28;20055;-65
2021/01/15 10:09:13;;;;;;;1999.90;999.90;;;;;;;-0.72;53.28;98459.09;4964117;28;20062;-65
2021/01/15 10:11:45;;;;;;;1999.90;999.90;;;;;;;0.07;52.51;98457.94;4961363;28;20055;-65
2021/01/15 10:14:12;;;;;;;;;;;;;;;0.06;51.64;98463.63;4961704;28;20570;-65
2021/01/15 10:16:51;;;;;;;1999.90;999.90;;;;;;;0.02;51.59;98455.19;4957360;28;20433;-65
2021/01/15 10:19:22;;;;;;;1999.90;999.90;;;;;;;-0.45;51.19;98456.47;4951289;28;20449;-65
2021/01/15 10:21:48;;;;;;;1999.90;999.90;;;;;;;0.10;50.79;98456.63;4956716;28;20130;-65
2021/01/15 10:24:15;;;;;;;1999.90;999.90;;;;;;;0.31;50.02;98444.91;4950611;28;20051;-65
2021/01/15 10:26:42;;;;;;;1999.90;999.90;;;;;;;0.02;51.04;98452.47;4964845;28;20292;-65
2021/01/15 10:29:10;;;;;;;1999.90;999.90;;;;;;;0.56;53.51;98445.41;4960237;28;20047;-65
2021/01/15 10:31:48;;;;;;;1999.90;999.90;;;;;;;0.34;53.99;98449.81;4958472;28;20574;-65
2021/01/15 10:34:15;;;;;;;1999.90;999.90;;;;;;;-0.84;57.29;98436.66;4959489;28;20046;-66
2021/01/15 10:36:46;;;;;;;1999.90;999.90;;;;;;;0.08;57.14;98440.56;4943655;28;20066;-63
2021/01/15 10:39:16;;;;;;;1999.90;999.90;;;;;;;-0.24;57.20;98444.00;4971834;28;20054;-64
2021/01/15 10:41:44;;;;;;;1999.90;999.90;;;;;;;-0.10;55.59;98439.00;4955884;28;20341;-64
2021/01/15 10:44:12;;;;;;;1999.90;999.90;;;;;;;0.05;57.05;98416.59;4959407;28;20662;-64
2021/01/15 10:46:41;;;;;;;1999.90;999.90;;;;;;;-1.15;57.46;98428.84;4957821;28;20062;-63
2021/01/15 10:49:12;;;;;;;1999.90;999.90;;;;;;;-1.39;54.02;98440.97;4953069;28;20051;-64
2021/01/15 10:51:48;;;;;;;1999.90;999.90;;;;;;;-0.06;52.61;98428.41;4958036;28;20237;-64
2021/01/15 10:54:15;;;;;;;1999.90;999.90;;;;;;;-0.06;55.43;98439.28;4960231;28;20500;-64
2021/01/15 10:56:46;;;;;;;1999.90;999.90;;;;;;;0.29;56.83;98428.00;4956879;28;20054;-63
2021/01/15 10:59:13;;;;;;;1999.90;999.90;;;;;;;0.27;53.30;98438.31;4956110;28;20059;-63
2021/01/15 11:01:47;;;;;;;1999.90;999.90;;;;;;;0.23;54.12;98442.63;4953208;28;20062;-64
2021/01/15 11:04:15;;;;;;;1999.90;999.90;;;;;;;0.26;55.15;98436.66;4959297;28;20500;-64
2021/01/15 11:06:43;;;;;;;1999.90;999.90;;;;;;;0.27;54.37;98427.44;4959115;28;20059;-65
2021/01/15 11:09:19;;;;;;;1999.90;999.90;;;;;;;0.30;53.13;98418.75;4961630;28;20054;-65
2021/01/15 11:12:00;;;;;;;1999.90;999.90;;;;;;;0.44;53.06;98389.22;4955349;28;20054;-65
2021/01/15 11:14:26;;;;;;;1999.90;999.90;;;;;;;0.38;52.01;98401.16;4956771;28;20047;-65